sensor_id;sensor_type;location;lat;lon;timestamp;P1;durP1;ratioP1;P2;durP2;ratioP2
15082;SDS011;7640;53.116;6.878;2022-12-04T00:00:47;43.60;;;20.03;;
15082;SDS011;7640;53.116;6.878;2022-12-04T00:03:18;47.77;;;21.03;;
15082;SDS011;7640;53.116;6.878;2022-12-04T00:05:49;45.73;;;19.87;;
15082;SDS011;7640;53.116;6.878;2022-12-04T00:08:17;42.17;;;20.30;;
15082;SDS011;7640;53.116;6.878;2022-12-04T00:10:52;44.87;;;20.90;;
15082;SDS011;7640;53.116;6.878;2022-12-04T00:13:26;47.17;;;21.00;;
15082;SDS011;7640;53.116;6.878;2022-12-04T00:15:55;46.63;;;20.63;;
15082;SDS011;7640;53.116;6.878;2022-12-04T00:18:27;50.37;;;21.30;;
15082;SDS011;7640;53.116;6.878;2022-12-04T00:21:01;48.40;;;21.93;;
15082;SDS011;7640;53.116;6.878;2022-12-04T00:23:46;45.80;;;22.53;;
15082;SDS011;7640;53.116;6.878;2022-12-04T00:26:21;48.87;;;22.17;;
15082;SDS011;7640;53.116;6.878;2022-12-04T00:29:00;57.13;;;23.17;;
15082;SDS011;7640;53.116;6.878;2022-12-04T00:31:34;48.83;;;22.77;;
15082;SDS011;7640;53.116;6.878;2022-12-04T00:34:04;48.30;;;22.43;;
15082;SDS011;7640;53.116;6.878;2022-12-04T00:36:40;48.27;;;22.23;;
15082;SDS011;7640;53.116;6.878;2022-12-04T00:39:12;52.33;;;23.83;;
15082;SDS011;7640;53.116;6.878;2022-12-04T00:41:49;50.53;;;23.80;;
15082;SDS011;7640;53.116;6.878;2022-12-04T00:44:32;54.70;;;24.23;;
15082;SDS011;7640;53.116;6.878;2022-12-04T00:47:01;50.63;;;24.83;;
15082;SDS011;7640;53.116;6.878;2022-12-04T00:49:30;52.17;;;23.07;;
15082;SDS011;7640;53.116;6.878;2022-12-04T00:52:00;50.23;;;23.13;;
15082;SDS011;7640;53.116;6.878;2022-12-04T00:54:36;58.03;;;26.03;;
15082;SDS011;7640;53.116;6.878;2022-12-04T00:57:08;53.43;;;24.47;;
15082;SDS011;7640;53.116;6.878;2022-12-04T00:59:38;54.43;;;24.93;;
15082;SDS011;7640;53.116;6.878;2022-12-04T01:02:14;53.17;;;24.73;;
15082;SDS011;7640;53.116;6.878;2022-12-04T01:04:45;50.23;;;23.43;;
15082;SDS011;7640;53.116;6.878;2022-12-04T01:07:16;55.10;;;24.37;;
15082;SDS011;7640;53.116;6.878;2022-12-04T01:09:44;58.03;;;25.43;;
15082;SDS011;7640;53.116;6.878;2022-12-04T01:12:15;53.50;;;24.90;;
15082;SDS011;7640;53.116;6.878;2022-12-04T01:14:47;54.43;;;23.63;;
15082;SDS011;7640;53.116;6.878;2022-12-04T01:17:16;53.13;;;24.50;;
15082;SDS011;7640;53.116;6.878;2022-12-04T01:19:45;49.90;;;22.80;;
15082;SDS011;7640;53.116;6.878;2022-12-04T01:22:20;53.40;;;25.13;;
15082;SDS011;7640;53.116;6.878;2022-12-04T01:24:54;53.40;;;24.37;;
15082;SDS011;7640;53.116;6.878;2022-12-04T01:27:24;52.23;;;23.10;;
15082;SDS011;7640;53.116;6.878;2022-12-04T01:29:55;52.43;;;23.63;;
15082;SDS011;7640;53.116;6.878;2022-12-04T01:32:34;59.27;;;26.67;;
15082;SDS011;7640;53.116;6.878;2022-12-04T01:35:05;54.97;;;25.63;;
15082;SDS011;7640;53.116;6.878;2022-12-04T01:37:39;52.83;;;24.67;;
15082;SDS011;7640;53.116;6.878;2022-12-04T01:40:14;51.20;;;24.43;;
15082;SDS011;7640;53.116;6.878;2022-12-04T01:42:50;56.47;;;26.13;;
15082;SDS011;7640;53.116;6.878;2022-12-04T01:45:33;58.40;;;25.93;;
15082;SDS011;7640;53.116;6.878;2022-12-04T01:48:15;58.73;;;26.33;;
15082;SDS011;7640;53.116;6.878;2022-12-04T01:50:50;55.83;;;25.00;;
15082;SDS011;7640;53.116;6.878;2022-12-04T01:53:22;59.20;;;25.93;;
15082;SDS011;7640;53.116;6.878;2022-12-04T01:55:51;60.27;;;26.63;;
15082;SDS011;7640;53.116;6.878;2022-12-04T01:58:23;55.03;;;25.47;;
15082;SDS011;7640;53.116;6.878;2022-12-04T02:00:58;60.17;;;26.70;;
15082;SDS011;7640;53.116;6.878;2022-12-04T02:03:34;63.57;;;27.63;;
15082;SDS011;7640;53.116;6.878;2022-12-04T02:06:03;56.37;;;26.10;;
15082;SDS011;7640;53.116;6.878;2022-12-04T02:08:33;58.87;;;27.43;;
15082;SDS011;7640;53.116;6.878;2022-12-04T02:11:06;57.47;;;26.23;;
15082;SDS011;7640;53.116;6.878;2022-12-04T02:13:47;59.23;;;26.93;;
15082;SDS011;7640;53.116;6.878;2022-12-04T02:16:24;60.10;;;26.63;;
15082;SDS011;7640;53.116;6.878;2022-12-04T02:19:07;62.10;;;26.70;;
15082;SDS011;7640;53.116;6.878;2022-12-04T02:22:18;59.23;;;27.07;;
15082;SDS011;7640;53.116;6.878;2022-12-04T02:25:03;55.47;;;24.27;;
15082;SDS011;7640;53.116;6.878;2022-12-04T02:27:57;62.23;;;26.83;;
15082;SDS011;7640;53.116;6.878;2022-12-04T02:30:31;58.63;;;25.80;;
15082;SDS011;7640;53.116;6.878;2022-12-04T02:33:06;54.40;;;24.70;;
15082;SDS011;7640;53.116;6.878;2022-12-04T02:35:44;58.40;;;26.37;;
15082;SDS011;7640;53.116;6.878;2022-12-04T02:38:17;57.10;;;24.67;;
15082;SDS011;7640;53.116;6.878;2022-12-04T02:40:53;56.23;;;25.77;;
15082;SDS011;7640;53.116;6.878;2022-12-04T02:43:28;55.87;;;26.30;;
15082;SDS011;7640;53.116;6.878;2022-12-04T02:46:00;57.07;;;25.93;;
15082;SDS011;7640;53.116;6.878;2022-12-04T02:48:34;58.97;;;26.90;;
15082;SDS011;7640;53.116;6.878;2022-12-04T02:51:07;60.40;;;26.73;;
15082;SDS011;7640;53.116;6.878;2022-12-04T02:53:42;64.63;;;26.80;;
15082;SDS011;7640;53.116;6.878;2022-12-04T02:56:17;64.97;;;27.30;;
15082;SDS011;7640;53.116;6.878;2022-12-04T02:58:52;60.63;;;26.77;;
15082;SDS011;7640;53.116;6.878;2022-12-04T03:01:25;59.47;;;26.80;;
15082;SDS011;7640;53.116;6.878;2022-12-04T03:04:00;61.40;;;26.40;;
15082;SDS011;7640;53.116;6.878;2022-12-04T03:06:39;65.63;;;28.17;;
15082;SDS011;7640;53.116;6.878;2022-12-04T03:09:15;64.70;;;28.00;;
15082;SDS011;7640;53.116;6.878;2022-12-04T03:11:50;64.07;;;27.33;;
15082;SDS011;7640;53.116;6.878;2022-12-04T03:14:25;64.60;;;28.03;;
15082;SDS011;7640;53.116;6.878;2022-12-04T03:16:58;63.90;;;27.80;;
15082;SDS011;7640;53.116;6.878;2022-12-04T03:19:36;62.03;;;27.80;;
15082;SDS011;7640;53.116;6.878;2022-12-04T03:22:08;62.93;;;27.77;;
15082;SDS011;7640;53.116;6.878;2022-12-04T03:24:42;59.13;;;26.57;;
15082;SDS011;7640;53.116;6.878;2022-12-04T03:27:17;57.37;;;27.37;;
15082;SDS011;7640;53.116;6.878;2022-12-04T03:29:58;66.00;;;28.67;;
15082;SDS011;7640;53.116;6.878;2022-12-04T03:32:32;62.47;;;27.37;;
15082;SDS011;7640;53.116;6.878;2022-12-04T03:35:10;58.57;;;26.90;;
15082;SDS011;7640;53.116;6.878;2022-12-04T03:37:46;65.93;;;28.07;;
15082;SDS011;7640;53.116;6.878;2022-12-04T03:40:24;59.50;;;25.17;;
15082;SDS011;7640;53.116;6.878;2022-12-04T03:43:01;61.43;;;28.60;;
15082;SDS011;7640;53.116;6.878;2022-12-04T03:45:38;64.63;;;27.83;;
15082;SDS011;7640;53.116;6.878;2022-12-04T03:48:14;62.30;;;28.60;;
15082;SDS011;7640;53.116;6.878;2022-12-04T03:50:49;64.47;;;28.73;;
15082;SDS011;7640;53.116;6.878;2022-12-04T03:53:29;60.43;;;28.13;;
15082;SDS011;7640;53.116;6.878;2022-12-04T03:56:07;60.10;;;27.37;;
15082;SDS011;7640;53.116;6.878;2022-12-04T03:58:41;63.53;;;28.33;;
15082;SDS011;7640;53.116;6.878;2022-12-04T04:01:17;66.83;;;29.43;;
15082;SDS011;7640;53.116;6.878;2022-12-04T04:03:50;58.10;;;26.23;;
15082;SDS011;7640;53.116;6.878;2022-12-04T04:06:22;66.13;;;28.50;;
15082;SDS011;7640;53.116;6.878;2022-12-04T04:08:58;62.80;;;27.57;;
15082;SDS011;7640;53.116;6.878;2022-12-04T04:11:33;58.37;;;27.13;;
15082;SDS011;7640;53.116;6.878;2022-12-04T04:14:13;57.47;;;26.17;;
15082;SDS011;7640;53.116;6.878;2022-12-04T04:17:06;61.60;;;27.23;;
15082;SDS011;7640;53.116;6.878;2022-12-04T04:20:04;59.53;;;26.30;;
15082;SDS011;7640;53.116;6.878;2022-12-04T04:22:54;70.00;;;28.63;;
15082;SDS011;7640;53.116;6.878;2022-12-04T04:25:42;60.07;;;26.80;;
15082;SDS011;7640;53.116;6.878;2022-12-04T04:28:27;68.57;;;28.50;;
15082;SDS011;7640;53.116;6.878;2022-12-04T04:31:00;60.67;;;27.50;;
15082;SDS011;7640;53.116;6.878;2022-12-04T04:33:44;64.70;;;27.97;;
15082;SDS011;7640;53.116;6.878;2022-12-04T04:36:22;64.10;;;27.80;;
15082;SDS011;7640;53.116;6.878;2022-12-04T04:38:59;63.30;;;28.20;;
15082;SDS011;7640;53.116;6.878;2022-12-04T04:41:38;64.40;;;29.37;;
15082;SDS011;7640;53.116;6.878;2022-12-04T04:44:16;61.10;;;27.57;;
15082;SDS011;7640;53.116;6.878;2022-12-04T04:46:52;67.03;;;29.80;;
15082;SDS011;7640;53.116;6.878;2022-12-04T04:49:28;66.67;;;27.37;;
15082;SDS011;7640;53.116;6.878;2022-12-04T04:52:00;61.23;;;27.47;;
15082;SDS011;7640;53.116;6.878;2022-12-04T04:54:30;63.63;;;30.77;;
15082;SDS011;7640;53.116;6.878;2022-12-04T04:57:00;62.70;;;27.93;;
15082;SDS011;7640;53.116;6.878;2022-12-04T04:59:29;61.93;;;28.40;;
15082;SDS011;7640;53.116;6.878;2022-12-04T05:01:59;62.37;;;28.70;;
15082;SDS011;7640;53.116;6.878;2022-12-04T05:04:30;65.30;;;28.93;;
15082;SDS011;7640;53.116;6.878;2022-12-04T05:06:58;63.17;;;27.90;;
15082;SDS011;7640;53.116;6.878;2022-12-04T05:09:27;64.50;;;29.07;;
15082;SDS011;7640;53.116;6.878;2022-12-04T05:11:56;63.23;;;28.27;;
15082;SDS011;7640;53.116;6.878;2022-12-04T05:14:24;70.73;;;29.97;;
15082;SDS011;7640;53.116;6.878;2022-12-04T05:16:53;65.97;;;30.30;;
15082;SDS011;7640;53.116;6.878;2022-12-04T05:19:27;68.53;;;30.17;;
15082;SDS011;7640;53.116;6.878;2022-12-04T05:22:18;62.87;;;27.73;;
15082;SDS011;7640;53.116;6.878;2022-12-04T05:24:49;67.13;;;28.93;;
15082;SDS011;7640;53.116;6.878;2022-12-04T05:27:18;57.50;;;27.47;;
15082;SDS011;7640;53.116;6.878;2022-12-04T05:29:48;63.70;;;28.80;;
15082;SDS011;7640;53.116;6.878;2022-12-04T05:32:19;63.33;;;28.77;;
15082;SDS011;7640;53.116;6.878;2022-12-04T05:34:51;60.87;;;27.60;;
15082;SDS011;7640;53.116;6.878;2022-12-04T05:37:21;65.33;;;27.87;;
15082;SDS011;7640;53.116;6.878;2022-12-04T05:39:50;62.27;;;27.47;;
15082;SDS011;7640;53.116;6.878;2022-12-04T05:42:20;61.10;;;28.27;;
15082;SDS011;7640;53.116;6.878;2022-12-04T05:44:48;61.10;;;27.67;;
15082;SDS011;7640;53.116;6.878;2022-12-04T05:47:17;61.97;;;28.03;;
15082;SDS011;7640;53.116;6.878;2022-12-04T05:49:45;64.30;;;28.13;;
15082;SDS011;7640;53.116;6.878;2022-12-04T05:52:16;67.73;;;29.67;;
15082;SDS011;7640;53.116;6.878;2022-12-04T05:54:44;58.97;;;28.57;;
15082;SDS011;7640;53.116;6.878;2022-12-04T05:57:12;56.87;;;27.07;;
15082;SDS011;7640;53.116;6.878;2022-12-04T05:59:41;60.20;;;27.57;;
15082;SDS011;7640;53.116;6.878;2022-12-04T06:02:10;55.83;;;26.10;;
15082;SDS011;7640;53.116;6.878;2022-12-04T06:04:38;64.13;;;28.93;;
15082;SDS011;7640;53.116;6.878;2022-12-04T06:07:09;62.20;;;27.47;;
15082;SDS011;7640;53.116;6.878;2022-12-04T06:09:40;70.63;;;29.87;;
15082;SDS011;7640;53.116;6.878;2022-12-04T06:12:09;62.10;;;28.53;;
15082;SDS011;7640;53.116;6.878;2022-12-04T06:14:45;62.63;;;28.43;;
15082;SDS011;7640;53.116;6.878;2022-12-04T06:17:16;61.67;;;27.10;;
15082;SDS011;7640;53.116;6.878;2022-12-04T06:19:47;61.43;;;28.17;;
15082;SDS011;7640;53.116;6.878;2022-12-04T06:22:19;59.47;;;26.60;;
15082;SDS011;7640;53.116;6.878;2022-12-04T06:24:53;65.23;;;29.83;;
15082;SDS011;7640;53.116;6.878;2022-12-04T06:27:22;60.43;;;27.47;;
15082;SDS011;7640;53.116;6.878;2022-12-04T06:30:00;65.03;;;28.63;;
15082;SDS011;7640;53.116;6.878;2022-12-04T06:32:32;62.40;;;27.27;;
15082;SDS011;7640;53.116;6.878;2022-12-04T06:35:05;71.03;;;28.97;;
15082;SDS011;7640;53.116;6.878;2022-12-04T06:37:50;70.20;;;29.70;;
15082;SDS011;7640;53.116;6.878;2022-12-04T06:40:25;65.57;;;28.87;;
15082;SDS011;7640;53.116;6.878;2022-12-04T06:42:55;59.53;;;25.93;;
15082;SDS011;7640;53.116;6.878;2022-12-04T06:45:25;70.63;;;28.87;;
15082;SDS011;7640;53.116;6.878;2022-12-04T06:47:56;65.90;;;28.13;;
15082;SDS011;7640;53.116;6.878;2022-12-04T06:50:32;66.17;;;28.30;;
15082;SDS011;7640;53.116;6.878;2022-12-04T06:53:04;63.60;;;28.03;;
15082;SDS011;7640;53.116;6.878;2022-12-04T06:55:54;64.67;;;27.77;;
15082;SDS011;7640;53.116;6.878;2022-12-04T06:58:33;64.63;;;28.13;;
15082;SDS011;7640;53.116;6.878;2022-12-04T07:01:09;65.60;;;29.33;;
15082;SDS011;7640;53.116;6.878;2022-12-04T07:03:43;68.13;;;29.63;;
15082;SDS011;7640;53.116;6.878;2022-12-04T07:06:19;61.60;;;27.50;;
15082;SDS011;7640;53.116;6.878;2022-12-04T07:08:54;64.13;;;27.90;;
15082;SDS011;7640;53.116;6.878;2022-12-04T07:11:31;65.03;;;29.10;;
15082;SDS011;7640;53.116;6.878;2022-12-04T07:14:02;62.77;;;27.27;;
15082;SDS011;7640;53.116;6.878;2022-12-04T07:16:39;67.97;;;29.53;;
15082;SDS011;7640;53.116;6.878;2022-12-04T07:19:11;64.27;;;28.30;;
15082;SDS011;7640;53.116;6.878;2022-12-04T07:21:43;67.23;;;28.60;;
15082;SDS011;7640;53.116;6.878;2022-12-04T07:24:16;63.00;;;29.23;;
15082;SDS011;7640;53.116;6.878;2022-12-04T07:26:49;63.80;;;27.77;;
15082;SDS011;7640;53.116;6.878;2022-12-04T07:29:23;64.00;;;27.27;;
15082;SDS011;7640;53.116;6.878;2022-12-04T07:31:53;64.57;;;28.17;;
15082;SDS011;7640;53.116;6.878;2022-12-04T07:34:25;67.93;;;29.40;;
15082;SDS011;7640;53.116;6.878;2022-12-04T07:36:54;63.67;;;28.10;;
15082;SDS011;7640;53.116;6.878;2022-12-04T07:39:24;59.50;;;27.53;;
15082;SDS011;7640;53.116;6.878;2022-12-04T07:42:01;62.27;;;28.30;;
15082;SDS011;7640;53.116;6.878;2022-12-04T07:44:32;61.40;;;28.37;;
15082;SDS011;7640;53.116;6.878;2022-12-04T07:47:02;64.07;;;29.60;;
15082;SDS011;7640;53.116;6.878;2022-12-04T07:49:41;60.13;;;27.63;;
15082;SDS011;7640;53.116;6.878;2022-12-04T07:52:12;66.23;;;27.13;;
15082;SDS011;7640;53.116;6.878;2022-12-04T07:54:44;64.23;;;28.70;;
15082;SDS011;7640;53.116;6.878;2022-12-04T07:57:19;65.70;;;27.70;;
15082;SDS011;7640;53.116;6.878;2022-12-04T07:59:48;61.77;;;27.63;;
15082;SDS011;7640;53.116;6.878;2022-12-04T08:02:16;63.83;;;28.27;;
15082;SDS011;7640;53.116;6.878;2022-12-04T08:04:46;60.77;;;26.07;;
15082;SDS011;7640;53.116;6.878;2022-12-04T08:07:14;60.70;;;28.10;;
15082;SDS011;7640;53.116;6.878;2022-12-04T08:09:43;58.53;;;27.07;;
15082;SDS011;7640;53.116;6.878;2022-12-04T08:12:11;57.23;;;26.30;;
15082;SDS011;7640;53.116;6.878;2022-12-04T08:14:41;59.57;;;27.70;;
15082;SDS011;7640;53.116;6.878;2022-12-04T08:17:11;59.23;;;27.40;;
15082;SDS011;7640;53.116;6.878;2022-12-04T08:19:40;53.43;;;24.80;;
15082;SDS011;7640;53.116;6.878;2022-12-04T08:22:09;58.10;;;26.00;;
15082;SDS011;7640;53.116;6.878;2022-12-04T08:24:37;61.93;;;28.30;;
15082;SDS011;7640;53.116;6.878;2022-12-04T08:27:06;59.47;;;28.47;;
15082;SDS011;7640;53.116;6.878;2022-12-04T08:29:35;60.27;;;28.17;;
15082;SDS011;7640;53.116;6.878;2022-12-04T08:32:05;58.97;;;26.17;;
15082;SDS011;7640;53.116;6.878;2022-12-04T08:34:33;56.23;;;27.00;;
15082;SDS011;7640;53.116;6.878;2022-12-04T08:37:04;51.57;;;25.70;;
15082;SDS011;7640;53.116;6.878;2022-12-04T08:39:33;56.80;;;26.67;;
15082;SDS011;7640;53.116;6.878;2022-12-04T08:42:02;59.63;;;27.03;;
15082;SDS011;7640;53.116;6.878;2022-12-04T08:44:30;60.70;;;27.17;;
15082;SDS011;7640;53.116;6.878;2022-12-04T08:46:59;57.07;;;26.73;;
15082;SDS011;7640;53.116;6.878;2022-12-04T08:49:32;54.07;;;26.00;;
15082;SDS011;7640;53.116;6.878;2022-12-04T08:52:00;55.83;;;26.47;;
15082;SDS011;7640;53.116;6.878;2022-12-04T08:54:29;54.60;;;25.30;;
15082;SDS011;7640;53.116;6.878;2022-12-04T08:57:01;51.73;;;25.10;;
15082;SDS011;7640;53.116;6.878;2022-12-04T08:59:30;59.40;;;26.57;;
15082;SDS011;7640;53.116;6.878;2022-12-04T09:01:59;55.17;;;26.33;;
15082;SDS011;7640;53.116;6.878;2022-12-04T09:04:27;55.20;;;25.87;;
15082;SDS011;7640;53.116;6.878;2022-12-04T09:06:58;53.60;;;26.27;;
15082;SDS011;7640;53.116;6.878;2022-12-04T09:09:26;60.80;;;26.73;;
15082;SDS011;7640;53.116;6.878;2022-12-04T09:11:55;55.83;;;26.13;;
15082;SDS011;7640;53.116;6.878;2022-12-04T09:14:24;52.47;;;25.60;;
15082;SDS011;7640;53.116;6.878;2022-12-04T09:16:52;53.97;;;25.80;;
15082;SDS011;7640;53.116;6.878;2022-12-04T09:19:21;50.83;;;25.70;;
15082;SDS011;7640;53.116;6.878;2022-12-04T09:21:50;52.50;;;26.67;;
15082;SDS011;7640;53.116;6.878;2022-12-04T09:24:30;54.97;;;25.40;;
15082;SDS011;7640;53.116;6.878;2022-12-04T09:27:02;49.40;;;24.17;;
15082;SDS011;7640;53.116;6.878;2022-12-04T09:29:40;54.30;;;25.60;;
15082;SDS011;7640;53.116;6.878;2022-12-04T09:32:08;53.30;;;26.17;;
15082;SDS011;7640;53.116;6.878;2022-12-04T09:34:39;51.07;;;25.40;;
15082;SDS011;7640;53.116;6.878;2022-12-04T09:37:12;45.77;;;24.07;;
15082;SDS011;7640;53.116;6.878;2022-12-04T09:39:44;52.13;;;24.97;;
15082;SDS011;7640;53.116;6.878;2022-12-04T09:42:22;49.73;;;24.77;;
15082;SDS011;7640;53.116;6.878;2022-12-04T09:45:02;47.30;;;23.67;;
15082;SDS011;7640;53.116;6.878;2022-12-04T09:47:37;44.83;;;22.43;;
15082;SDS011;7640;53.116;6.878;2022-12-04T09:50:11;47.63;;;22.27;;
15082;SDS011;7640;53.116;6.878;2022-12-04T09:52:49;42.80;;;20.93;;
15082;SDS011;7640;53.116;6.878;2022-12-04T09:55:24;44.57;;;22.67;;
15082;SDS011;7640;53.116;6.878;2022-12-04T09:57:56;45.90;;;21.17;;
15082;SDS011;7640;53.116;6.878;2022-12-04T10:00:28;46.37;;;23.27;;
15082;SDS011;7640;53.116;6.878;2022-12-04T10:03:00;42.80;;;21.13;;
15082;SDS011;7640;53.116;6.878;2022-12-04T10:06:07;45.40;;;21.17;;
15082;SDS011;7640;53.116;6.878;2022-12-04T10:08:55;41.87;;;20.47;;
15082;SDS011;7640;53.116;6.878;2022-12-04T10:11:34;43.97;;;21.77;;
15082;SDS011;7640;53.116;6.878;2022-12-04T10:17:34;39.37;;;19.80;;
15082;SDS011;7640;53.116;6.878;2022-12-04T10:20:33;36.70;;;19.23;;
15082;SDS011;7640;53.116;6.878;2022-12-04T10:23:19;37.43;;;18.77;;
15082;SDS011;7640;53.116;6.878;2022-12-04T10:26:01;37.10;;;20.23;;
15082;SDS011;7640;53.116;6.878;2022-12-04T10:28:34;43.33;;;21.67;;
15082;SDS011;7640;53.116;6.878;2022-12-04T10:31:08;37.37;;;19.70;;
15082;SDS011;7640;53.116;6.878;2022-12-04T10:33:41;36.30;;;19.33;;
15082;SDS011;7640;53.116;6.878;2022-12-04T10:36:14;35.33;;;18.13;;
15082;SDS011;7640;53.116;6.878;2022-12-04T10:38:47;36.30;;;19.20;;
15082;SDS011;7640;53.116;6.878;2022-12-04T10:41:23;36.40;;;17.93;;
15082;SDS011;7640;53.116;6.878;2022-12-04T10:43:55;37.07;;;18.80;;
15082;SDS011;7640;53.116;6.878;2022-12-04T10:46:25;36.53;;;17.97;;
15082;SDS011;7640;53.116;6.878;2022-12-04T10:49:00;34.40;;;17.70;;
15082;SDS011;7640;53.116;6.878;2022-12-04T10:51:38;33.77;;;17.73;;
15082;SDS011;7640;53.116;6.878;2022-12-04T10:54:10;32.83;;;16.87;;
15082;SDS011;7640;53.116;6.878;2022-12-04T10:56:49;31.93;;;16.40;;
15082;SDS011;7640;53.116;6.878;2022-12-04T10:59:24;29.40;;;16.40;;
15082;SDS011;7640;53.116;6.878;2022-12-04T11:01:58;30.77;;;16.27;;
15082;SDS011;7640;53.116;6.878;2022-12-04T11:04:32;31.10;;;16.83;;
15082;SDS011;7640;53.116;6.878;2022-12-04T11:07:02;30.70;;;16.20;;
15082;SDS011;7640;53.116;6.878;2022-12-04T11:09:34;29.50;;;15.60;;
15082;SDS011;7640;53.116;6.878;2022-12-04T11:12:04;30.30;;;16.60;;
15082;SDS011;7640;53.116;6.878;2022-12-04T11:14:37;29.47;;;16.30;;
15082;SDS011;7640;53.116;6.878;2022-12-04T11:17:14;31.57;;;16.27;;
15082;SDS011;7640;53.116;6.878;2022-12-04T11:19:45;31.70;;;16.90;;
15082;SDS011;7640;53.116;6.878;2022-12-04T11:22:14;31.13;;;17.23;;
15082;SDS011;7640;53.116;6.878;2022-12-04T11:24:48;31.50;;;17.40;;
15082;SDS011;7640;53.116;6.878;2022-12-04T11:27:21;30.27;;;16.50;;
15082;SDS011;7640;53.116;6.878;2022-12-04T11:29:56;32.37;;;17.90;;
15082;SDS011;7640;53.116;6.878;2022-12-04T11:32:28;34.30;;;17.47;;
15082;SDS011;7640;53.116;6.878;2022-12-04T11:35:00;30.20;;;16.80;;
15082;SDS011;7640;53.116;6.878;2022-12-04T11:37:39;31.20;;;16.50;;
15082;SDS011;7640;53.116;6.878;2022-12-04T11:40:13;35.53;;;18.27;;
15082;SDS011;7640;53.116;6.878;2022-12-04T11:42:54;37.17;;;18.40;;
15082;SDS011;7640;53.116;6.878;2022-12-04T11:45:29;33.47;;;17.87;;
15082;SDS011;7640;53.116;6.878;2022-12-04T11:47:58;32.73;;;17.43;;
15082;SDS011;7640;53.116;6.878;2022-12-04T11:50:33;31.07;;;17.37;;
15082;SDS011;7640;53.116;6.878;2022-12-04T11:53:13;32.20;;;17.23;;
15082;SDS011;7640;53.116;6.878;2022-12-04T11:55:58;32.43;;;17.53;;
15082;SDS011;7640;53.116;6.878;2022-12-04T11:58:45;31.90;;;16.60;;
15082;SDS011;7640;53.116;6.878;2022-12-04T12:01:44;30.93;;;16.93;;
15082;SDS011;7640;53.116;6.878;2022-12-04T12:04:28;33.33;;;17.00;;
15082;SDS011;7640;53.116;6.878;2022-12-04T12:07:23;28.10;;;15.40;;
15082;SDS011;7640;53.116;6.878;2022-12-04T12:10:07;28.13;;;15.63;;
15082;SDS011;7640;53.116;6.878;2022-12-04T12:12:47;30.60;;;16.07;;
15082;SDS011;7640;53.116;6.878;2022-12-04T12:15:25;31.87;;;17.10;;
15082;SDS011;7640;53.116;6.878;2022-12-04T12:18:16;31.07;;;16.40;;
15082;SDS011;7640;53.116;6.878;2022-12-04T12:21:01;32.83;;;17.17;;
15082;SDS011;7640;53.116;6.878;2022-12-04T12:23:48;32.73;;;17.10;;
15082;SDS011;7640;53.116;6.878;2022-12-04T12:26:33;32.63;;;16.30;;
15082;SDS011;7640;53.116;6.878;2022-12-04T12:32:08;31.40;;;17.33;;
15082;SDS011;7640;53.116;6.878;2022-12-04T12:34:58;30.00;;;16.23;;
15082;SDS011;7640;53.116;6.878;2022-12-04T12:37:28;32.63;;;17.37;;
15082;SDS011;7640;53.116;6.878;2022-12-04T12:40:08;32.73;;;17.67;;
15082;SDS011;7640;53.116;6.878;2022-12-04T12:42:48;32.13;;;18.63;;
15082;SDS011;7640;53.116;6.878;2022-12-04T12:45:25;28.77;;;16.83;;
15082;SDS011;7640;53.116;6.878;2022-12-04T12:48:03;34.17;;;18.97;;
15082;SDS011;7640;53.116;6.878;2022-12-04T12:50:50;33.80;;;17.43;;
15082;SDS011;7640;53.116;6.878;2022-12-04T12:53:46;35.67;;;17.97;;
15082;SDS011;7640;53.116;6.878;2022-12-04T12:56:28;33.17;;;17.57;;
15082;SDS011;7640;53.116;6.878;2022-12-04T12:59:04;33.63;;;17.33;;
15082;SDS011;7640;53.116;6.878;2022-12-04T13:01:42;32.03;;;17.03;;
15082;SDS011;7640;53.116;6.878;2022-12-04T13:04:17;34.07;;;17.80;;
15082;SDS011;7640;53.116;6.878;2022-12-04T13:06:52;31.33;;;16.53;;
15082;SDS011;7640;53.116;6.878;2022-12-04T13:09:30;32.07;;;17.30;;
15082;SDS011;7640;53.116;6.878;2022-12-04T13:12:03;33.93;;;17.30;;
15082;SDS011;7640;53.116;6.878;2022-12-04T13:14:37;33.93;;;18.13;;
15082;SDS011;7640;53.116;6.878;2022-12-04T13:17:14;31.00;;;16.90;;
15082;SDS011;7640;53.116;6.878;2022-12-04T13:19:48;34.87;;;19.17;;
15082;SDS011;7640;53.116;6.878;2022-12-04T13:22:25;32.97;;;18.03;;
15082;SDS011;7640;53.116;6.878;2022-12-04T13:27:50;34.60;;;17.73;;
15082;SDS011;7640;53.116;6.878;2022-12-04T13:30:35;36.47;;;18.43;;
15082;SDS011;7640;53.116;6.878;2022-12-04T13:33:28;35.83;;;18.23;;
15082;SDS011;7640;53.116;6.878;2022-12-04T13:36:20;35.43;;;18.77;;
15082;SDS011;7640;53.116;6.878;2022-12-04T13:39:22;38.47;;;18.53;;
15082;SDS011;7640;53.116;6.878;2022-12-04T13:42:27;35.67;;;17.83;;
15082;SDS011;7640;53.116;6.878;2022-12-04T13:44:56;40.43;;;20.47;;
15082;SDS011;7640;53.116;6.878;2022-12-04T13:47:30;42.93;;;20.97;;
15082;SDS011;7640;53.116;6.878;2022-12-04T13:50:05;40.10;;;19.60;;
15082;SDS011;7640;53.116;6.878;2022-12-04T13:52:50;40.97;;;20.07;;
15082;SDS011;7640;53.116;6.878;2022-12-04T13:55:27;51.60;;;23.37;;
15082;SDS011;7640;53.116;6.878;2022-12-04T13:57:58;49.93;;;23.60;;
15082;SDS011;7640;53.116;6.878;2022-12-04T14:00:30;48.03;;;22.67;;
15082;SDS011;7640;53.116;6.878;2022-12-04T14:03:02;48.00;;;23.47;;
15082;SDS011;7640;53.116;6.878;2022-12-04T14:05:39;48.97;;;24.80;;
15082;SDS011;7640;53.116;6.878;2022-12-04T14:08:19;49.90;;;24.00;;
15082;SDS011;7640;53.116;6.878;2022-12-04T14:11:01;47.03;;;24.13;;
15082;SDS011;7640;53.116;6.878;2022-12-04T14:13:40;48.57;;;25.07;;
15082;SDS011;7640;53.116;6.878;2022-12-04T14:16:17;54.13;;;24.63;;
15082;SDS011;7640;53.116;6.878;2022-12-04T14:18:49;56.43;;;25.13;;
15082;SDS011;7640;53.116;6.878;2022-12-04T14:21:22;49.13;;;24.63;;
15082;SDS011;7640;53.116;6.878;2022-12-04T14:23:52;49.97;;;24.27;;
15082;SDS011;7640;53.116;6.878;2022-12-04T14:26:35;49.00;;;25.20;;
15082;SDS011;7640;53.116;6.878;2022-12-04T14:29:40;45.27;;;24.00;;
15082;SDS011;7640;53.116;6.878;2022-12-04T14:32:15;42.70;;;22.57;;
15082;SDS011;7640;53.116;6.878;2022-12-04T14:34:48;37.23;;;21.57;;
15082;SDS011;7640;53.116;6.878;2022-12-04T14:37:20;44.00;;;22.40;;
15082;SDS011;7640;53.116;6.878;2022-12-04T14:39:53;38.87;;;19.67;;
15082;SDS011;7640;53.116;6.878;2022-12-04T14:42:25;37.53;;;20.53;;
15082;SDS011;7640;53.116;6.878;2022-12-04T14:44:57;35.27;;;19.57;;
15082;SDS011;7640;53.116;6.878;2022-12-04T14:47:30;36.40;;;19.43;;
15082;SDS011;7640;53.116;6.878;2022-12-04T14:50:15;36.83;;;18.70;;
15082;SDS011;7640;53.116;6.878;2022-12-04T14:52:57;36.23;;;18.60;;
15082;SDS011;7640;53.116;6.878;2022-12-04T14:55:34;35.77;;;18.43;;
15082;SDS011;7640;53.116;6.878;2022-12-04T14:58:13;37.57;;;18.87;;
15082;SDS011;7640;53.116;6.878;2022-12-04T15:00:58;36.60;;;18.40;;
15082;SDS011;7640;53.116;6.878;2022-12-04T15:03:29;38.17;;;18.83;;
15082;SDS011;7640;53.116;6.878;2022-12-04T15:06:03;35.27;;;18.83;;
15082;SDS011;7640;53.116;6.878;2022-12-04T15:08:52;36.53;;;19.27;;
15082;SDS011;7640;53.116;6.878;2022-12-04T15:11:44;40.17;;;20.13;;
15082;SDS011;7640;53.116;6.878;2022-12-04T15:14:48;37.70;;;18.50;;
15082;SDS011;7640;53.116;6.878;2022-12-04T15:17:17;37.73;;;19.57;;
15082;SDS011;7640;53.116;6.878;2022-12-04T15:19:45;39.03;;;20.03;;
15082;SDS011;7640;53.116;6.878;2022-12-04T15:22:19;38.27;;;19.20;;
15082;SDS011;7640;53.116;6.878;2022-12-04T15:24:50;40.23;;;19.83;;
15082;SDS011;7640;53.116;6.878;2022-12-04T15:27:21;43.37;;;21.17;;
15082;SDS011;7640;53.116;6.878;2022-12-04T15:29:59;42.27;;;20.17;;